createdAt,value
2018-03-16T00:00:15.055Z,56.70
2018-03-16T00:02:44.065Z,56.50
2018-03-16T00:05:12.324Z,56.50
2018-03-16T00:07:40.637Z,56.60
2018-03-16T00:10:08.891Z,56.80
2018-03-16T00:12:37.141Z,56.70
2018-03-16T00:15:05.418Z,56.20
2018-03-16T00:17:33.674Z,56.60
2018-03-16T00:20:01.930Z,56.50
2018-03-16T00:22:45.566Z,56.60
2018-03-16T00:25:13.796Z,56.30
2018-03-16T00:27:42.046Z,56.80
2018-03-16T00:30:10.317Z,56.60
2018-03-16T00:32:38.570Z,56.50
2018-03-16T00:35:06.822Z,56.90
2018-03-16T00:37:35.097Z,57.50
2018-03-16T00:40:03.349Z,58.00
2018-03-16T00:42:32.209Z,57.90
2018-03-16T00:45:00.714Z,58.70
2018-03-16T00:47:28.956Z,59.70
2018-03-16T00:49:57.197Z,58.50
2018-03-16T00:52:25.474Z,58.70
2018-03-16T00:54:53.717Z,58.90
2018-03-16T00:57:21.957Z,58.40
2018-03-16T00:59:50.234Z,57.80
2018-03-16T01:02:18.481Z,58.30
2018-03-16T01:04:46.725Z,58.00
2018-03-16T01:07:16.086Z,57.80
2018-03-16T01:09:44.333Z,57.80
2018-03-16T01:12:12.625Z,57.90
2018-03-16T01:14:42.086Z,57.80
2018-03-16T01:17:11.097Z,59.50
2018-03-16T01:19:39.343Z,59.50
2018-03-16T01:22:07.609Z,59.10
2018-03-16T01:24:35.858Z,59.10
2018-03-16T01:27:04.109Z,58.40
2018-03-16T01:29:32.718Z,58.20
2018-03-16T01:32:00.969Z,58.90
2018-03-16T01:34:29.209Z,58.90
2018-03-16T01:36:57.474Z,59.60
2018-03-16T01:39:25.725Z,59.60
2018-03-16T01:41:53.996Z,59.70
2018-03-16T01:44:22.665Z,60.60
2018-03-16T01:46:50.912Z,60.60
2018-03-16T01:49:19.157Z,61.40
2018-03-16T01:51:47.637Z,60.30
2018-03-16T01:54:15.876Z,60.60
2018-03-16T01:56:44.130Z,60.60
2018-03-16T01:59:12.602Z,60.80
2018-03-16T02:01:41.616Z,63.60
2018-03-16T02:04:10.621Z,63.50
2018-03-16T02:06:38.898Z,63.50
2018-03-16T02:09:07.145Z,64.80
2018-03-16T02:11:35.387Z,66.10
2018-03-16T02:14:03.849Z,66.20
2018-03-16T02:16:32.095Z,65.30
2018-03-16T02:19:00.422Z,64.40
2018-03-16T02:21:28.698Z,65.60
2018-03-16T02:23:56.921Z,64.90
2018-03-16T02:26:25.358Z,64.50
2018-03-16T02:28:53.634Z,64.10
2018-03-16T02:31:21.877Z,64.40
2018-03-16T02:33:50.128Z,66.30
2018-03-16T02:36:18.650Z,65.90
2018-03-16T02:38:46.902Z,64.60
2018-03-16T02:41:15.142Z,64.70
2018-03-16T02:43:43.417Z,65.80
2018-03-16T02:46:11.834Z,65.10
2018-03-16T02:48:40.078Z,64.60
2018-03-16T02:51:08.678Z,64.90
2018-03-16T02:53:36.922Z,64.10
2018-03-16T02:56:05.309Z,65.00
2018-03-16T02:58:33.801Z,66.80
2018-03-16T03:01:02.814Z,66.00
2018-03-16T03:03:31.060Z,66.10
2018-03-16T03:05:59.606Z,66.50
2018-03-16T03:08:27.850Z,65.50
2018-03-16T03:10:56.892Z,67.00
2018-03-16T03:13:25.197Z,67.00
2018-03-16T03:15:53.441Z,67.30
2018-03-16T03:18:21.689Z,68.40
2018-03-16T03:20:50.167Z,68.00
2018-03-16T03:23:18.400Z,66.70
2018-03-16T03:25:46.645Z,67.10
2018-03-16T03:28:14.909Z,66.60
2018-03-16T03:30:43.158Z,68.00
2018-03-16T03:33:11.397Z,69.90
2018-03-16T03:35:39.664Z,69.20
2018-03-16T03:38:07.908Z,67.70
2018-03-16T03:40:36.148Z,67.40
2018-03-16T03:43:04.814Z,71.00
2018-03-16T03:45:33.061Z,68.70
2018-03-16T03:48:01.913Z,67.40
2018-03-16T03:50:31.922Z,68.70
2018-03-16T03:53:00.170Z,68.70
2018-03-16T03:55:28.418Z,68.10
2018-03-16T03:57:56.685Z,68.30
2018-03-16T04:00:24.924Z,72.00
2018-03-16T04:02:53.163Z,70.90
2018-03-16T04:05:22.226Z,68.60
2018-03-16T04:07:50.479Z,67.60
2018-03-16T04:10:19.485Z,75.00
2018-03-16T04:12:47.753Z,74.80
2018-03-16T04:15:15.998Z,71.30
2018-03-16T04:17:44.241Z,70.50
2018-03-16T04:20:12.505Z,70.80
2018-03-16T04:22:40.761Z,69.60
2018-03-16T04:25:09.765Z,70.80
2018-03-16T04:27:38.473Z,70.70
2018-03-16T04:30:06.726Z,74.30
2018-03-16T04:32:34.981Z,73.60
2018-03-16T04:35:03.233Z,72.10
2018-03-16T04:37:31.481Z,72.60
2018-03-16T04:39:59.726Z,71.40
2018-03-16T04:42:27.993Z,73.00
2018-03-16T04:44:56.241Z,70.00
2018-03-16T04:47:24.486Z,70.10
2018-03-16T04:49:53.022Z,70.30
2018-03-16T04:52:21.265Z,73.40
2018-03-16T04:54:49.504Z,72.30
2018-03-16T04:57:17.785Z,74.20
2018-03-16T04:59:46.024Z,72.50
2018-03-16T05:02:14.269Z,72.50
2018-03-16T05:04:42.545Z,79.30
2018-03-16T05:07:10.777Z,74.50
2018-03-16T05:09:39.030Z,78.00
2018-03-16T05:12:07.462Z,73.50
2018-03-16T05:14:35.705Z,72.60
2018-03-16T05:17:04.139Z,74.00
2018-03-16T05:19:32.413Z,76.00
2018-03-16T05:22:00.657Z,76.60
2018-03-16T05:24:28.902Z,75.90
2018-03-16T05:26:57.169Z,75.50
2018-03-16T05:29:26.186Z,79.50
2018-03-16T05:31:54.440Z,79.40
2018-03-16T05:34:23.185Z,78.40
2018-03-16T05:36:51.429Z,75.00
2018-03-16T05:39:19.686Z,77.20
2018-03-16T05:41:47.948Z,75.50
2018-03-16T05:44:16.194Z,77.10
2018-03-16T05:46:44.437Z,87.70
2018-03-16T05:49:12.702Z,80.70
2018-03-16T05:51:41.505Z,78.70
2018-03-16T05:54:09.745Z,78.10
2018-03-16T05:56:38.286Z,77.70
2018-03-16T05:59:06.543Z,77.50
2018-03-16T06:01:34.782Z,77.50
2018-03-16T06:04:03.985Z,77.60
2018-03-16T06:06:32.998Z,77.90
2018-03-16T06:09:02.021Z,79.00
2018-03-16T06:11:30.331Z,79.00
2018-03-16T06:13:58.537Z,77.20
2018-03-16T06:16:26.783Z,79.70
2018-03-16T06:18:55.233Z,77.60
2018-03-16T06:21:23.687Z,78.40
2018-03-16T06:23:51.988Z,80.40
2018-03-16T06:26:20.245Z,81.30
2018-03-16T06:28:48.493Z,83.30
2018-03-16T06:31:16.733Z,87.20
2018-03-16T06:33:45.001Z,84.20
2018-03-16T06:36:13.257Z,84.40
2018-03-16T06:38:41.581Z,84.10
2018-03-16T06:41:10.038Z,83.30
2018-03-16T06:43:38.285Z,84.40
2018-03-16T06:46:06.535Z,83.60
2018-03-16T06:48:34.797Z,86.20
2018-03-16T06:51:03.049Z,84.70
2018-03-16T06:53:31.594Z,81.40
2018-03-16T06:56:00.631Z,80.00
2018-03-16T06:58:28.958Z,80.00
2018-03-16T07:00:57.175Z,77.20
2018-03-16T07:03:26.065Z,76.30
2018-03-16T07:05:54.318Z,76.70
2018-03-16T07:08:22.569Z,79.50
2018-03-16T07:10:50.849Z,78.20
2018-03-16T07:13:19.850Z,79.50
2018-03-16T07:15:48.862Z,79.80
2018-03-16T07:18:17.129Z,79.90
2018-03-16T07:20:45.376Z,84.70
2018-03-16T07:23:13.667Z,84.20
2018-03-16T07:25:42.089Z,82.90
2018-03-16T07:28:10.417Z,80.10
2018-03-16T07:30:39.430Z,82.40
2018-03-16T07:33:08.726Z,82.60
2018-03-16T07:35:37.734Z,84.90
2018-03-16T07:38:05.981Z,84.90
2018-03-16T07:40:34.250Z,85.70
2018-03-16T07:43:03.261Z,85.30
2018-03-16T07:45:37.345Z,85.40
2018-03-16T07:48:06.317Z,84.80
2018-03-16T07:50:34.562Z,84.70
2018-03-16T07:53:02.849Z,83.50
2018-03-16T07:55:31.512Z,84.80
2018-03-16T07:58:01.259Z,86.20
2018-03-16T08:00:29.556Z,86.10
2018-03-16T08:02:57.836Z,89.80
2018-03-16T08:05:26.077Z,87.20
2018-03-16T08:07:54.986Z,86.90
2018-03-16T08:10:23.274Z,85.00
2018-03-16T08:12:51.681Z,85.00
2018-03-16T08:15:20.773Z,83.30
2018-03-16T08:17:48.989Z,83.30
2018-03-16T08:20:17.249Z,85.10
2018-03-16T08:22:45.521Z,87.60
2018-03-16T08:25:14.537Z,82.90
2018-03-16T08:27:43.406Z,83.00
2018-03-16T08:30:11.941Z,83.80
2018-03-16T08:32:40.228Z,88.40
2018-03-16T08:35:08.573Z,85.40
2018-03-16T08:37:36.849Z,85.30
2018-03-16T08:40:05.102Z,86.20
2018-03-16T08:42:34.725Z,84.70
2018-03-16T08:45:03.770Z,86.10
2018-03-16T08:47:32.033Z,86.10
2018-03-16T08:50:00.426Z,83.70
2018-03-16T08:52:28.880Z,84.20
2018-03-16T08:54:57.133Z,84.20
2018-03-16T08:57:27.088Z,83.90
2018-03-16T08:59:55.353Z,83.20
2018-03-16T09:02:24.574Z,85.80
2018-03-16T09:04:52.825Z,85.50
2018-03-16T09:07:21.102Z,86.40
2018-03-16T09:09:49.412Z,86.60
2018-03-16T09:12:18.071Z,87.10
2018-03-16T09:14:46.445Z,86.00
2018-03-16T09:17:14.689Z,87.50
2018-03-16T09:19:43.190Z,84.60
2018-03-16T09:22:11.465Z,85.80
2018-03-16T09:24:39.733Z,84.00
2018-03-16T09:27:08.002Z,83.80
2018-03-16T09:29:38.225Z,86.00
2018-03-16T09:32:06.477Z,86.00
2018-03-16T09:34:34.832Z,84.70
2018-03-16T09:37:03.399Z,85.60
2018-03-16T09:39:31.697Z,85.90
2018-03-16T09:41:59.930Z,84.90
2018-03-16T09:44:28.206Z,88.00
2018-03-16T09:46:56.481Z,88.50
2018-03-16T09:49:24.745Z,87.30
2018-03-16T09:51:53.054Z,87.30
2018-03-16T09:54:21.321Z,86.10
2018-03-16T09:56:49.570Z,87.80
2018-03-16T09:59:18.593Z,89.50
2018-03-16T10:01:46.876Z,86.40
2018-03-16T10:04:15.145Z,86.20
2018-03-16T10:06:43.412Z,85.40
2018-03-16T10:09:11.661Z,85.30
2018-03-16T10:11:40.685Z,84.00
2018-03-16T10:14:08.963Z,83.90
2018-03-16T10:16:37.462Z,82.80
2018-03-16T10:19:05.725Z,86.40
2018-03-16T10:21:34.217Z,86.80
2018-03-16T10:24:02.458Z,85.00
2018-03-16T10:26:30.698Z,85.90
2018-03-16T10:28:59.089Z,86.80
2018-03-16T10:31:27.357Z,87.30
2018-03-16T10:33:55.601Z,85.60
2018-03-16T10:36:23.866Z,84.50
2018-03-16T10:38:52.117Z,83.90
2018-03-16T10:41:20.361Z,85.70
2018-03-16T10:43:49.025Z,84.10
2018-03-16T10:46:17.281Z,78.90
2018-03-16T10:48:45.522Z,75.00
2018-03-16T10:51:13.797Z,75.70
2018-03-16T10:53:42.801Z,79.20
2018-03-16T10:56:11.821Z,78.30
2018-03-16T10:58:40.094Z,78.20
2018-03-16T11:01:15.438Z,75.70
2018-03-16T11:03:49.426Z,76.80
2018-03-16T11:06:23.357Z,79.20
2018-03-16T11:08:51.637Z,79.50
2018-03-16T11:11:19.881Z,78.90
2018-03-16T11:13:48.898Z,74.80
2018-03-16T11:16:17.152Z,74.60
2018-03-16T11:18:45.400Z,73.70
2018-03-16T11:21:13.638Z,74.10
2018-03-16T11:23:42.129Z,76.20
2018-03-16T11:26:10.369Z,78.50
2018-03-16T11:28:38.608Z,78.50
2018-03-16T11:31:06.880Z,75.50
2018-03-16T11:33:35.117Z,76.70
2018-03-16T11:36:03.362Z,76.70
2018-03-16T11:38:32.390Z,81.50
2018-03-16T11:41:00.734Z,81.90
2018-03-16T11:43:30.929Z,80.90
2018-03-16T11:45:59.693Z,79.90
2018-03-16T11:48:27.930Z,74.60
2018-03-16T11:50:56.173Z,75.90
2018-03-16T11:53:24.429Z,72.80
2018-03-16T11:55:52.673Z,71.90
2018-03-16T11:58:20.913Z,72.70
2018-03-16T12:00:49.178Z,74.20
2018-03-16T12:03:17.693Z,76.50
2018-03-16T12:05:46.717Z,75.40
2018-03-16T12:08:15.413Z,75.40
2018-03-16T12:10:43.653Z,73.40
2018-03-16T12:13:11.895Z,75.60
2018-03-16T12:15:40.156Z,75.70
2018-03-16T12:18:08.390Z,75.90
2018-03-16T12:20:36.625Z,75.60
2018-03-16T12:23:04.899Z,76.40
2018-03-16T12:25:33.142Z,74.80
2018-03-16T12:28:01.390Z,73.10
2018-03-16T12:30:30.153Z,74.00
2018-03-16T12:32:58.408Z,73.60
2018-03-16T12:35:26.637Z,71.20
2018-03-16T12:37:54.897Z,69.80
2018-03-16T12:40:23.137Z,70.10
2018-03-16T12:42:51.410Z,71.20
2018-03-16T12:45:21.473Z,72.40
2018-03-16T12:47:49.717Z,71.80
2018-03-16T12:50:17.949Z,71.50
2018-03-16T12:52:46.497Z,71.50
2018-03-16T12:55:15.564Z,72.10
2018-03-16T12:57:43.801Z,72.70
2018-03-16T13:00:12.088Z,73.30
2018-03-16T13:02:40.337Z,75.00
2018-03-16T13:05:09.313Z,75.90
2018-03-16T13:07:37.594Z,77.10
2018-03-16T13:10:05.837Z,76.80
2018-03-16T13:12:34.073Z,77.50
2018-03-16T13:15:02.573Z,77.70
2018-03-16T13:17:30.911Z,77.30
2018-03-16T13:19:59.921Z,79.40
2018-03-16T13:22:28.190Z,79.40
2018-03-16T13:24:56.741Z,82.10
2018-03-16T13:27:25.050Z,82.60
2018-03-16T13:29:53.278Z,83.90
2018-03-16T13:32:21.666Z,84.60
2018-03-16T13:34:49.899Z,85.30
2018-03-16T13:37:18.606Z,85.70
2018-03-16T13:39:46.837Z,86.90
2018-03-16T13:42:15.081Z,86.90
2018-03-16T13:44:43.348Z,88.20
2018-03-16T13:47:11.618Z,87.40
2018-03-16T13:49:39.838Z,87.10
2018-03-16T13:52:08.865Z,87.60
2018-03-16T13:54:37.110Z,87.60
2018-03-16T13:57:05.351Z,86.90
2018-03-16T13:59:33.665Z,84.70
2018-03-16T14:02:02.719Z,81.30
2018-03-16T14:04:30.947Z,81.20
2018-03-16T14:06:59.718Z,80.20
2018-03-16T14:09:28.717Z,80.40
2018-03-16T14:11:57.733Z,81.40
2018-03-16T14:14:25.998Z,81.20
2018-03-16T14:16:54.237Z,79.50
2018-03-16T14:19:22.490Z,76.40
2018-03-16T14:21:51.261Z,73.10
2018-03-16T14:24:19.506Z,68.00
2018-03-16T14:26:47.742Z,66.40
2018-03-16T14:29:16.004Z,64.80
2018-03-16T14:31:44.249Z,67.10
2018-03-16T14:34:12.513Z,70.00
2018-03-16T14:36:41.542Z,73.20
2018-03-16T14:39:09.782Z,73.10
2018-03-16T14:41:38.025Z,71.60
2018-03-16T14:44:07.161Z,71.00
2018-03-16T14:46:35.593Z,70.20
2018-03-16T14:49:03.833Z,71.10
2018-03-16T14:51:32.106Z,72.10
2018-03-16T14:54:00.554Z,72.50
2018-03-16T14:56:28.774Z,73.70
2018-03-16T14:58:57.046Z,73.50
2018-03-16T15:01:25.286Z,73.60
2018-03-16T15:03:53.768Z,74.00
2018-03-16T15:06:23.186Z,76.70
2018-03-16T15:08:51.685Z,76.70
2018-03-16T15:11:19.929Z,77.20
2018-03-16T15:13:48.230Z,76.00
2018-03-16T15:16:16.424Z,76.40
2018-03-16T15:18:44.676Z,77.70
2018-03-16T15:21:12.937Z,77.80
2018-03-16T15:23:41.177Z,77.60
2018-03-16T15:26:09.428Z,78.10
2018-03-16T15:28:37.834Z,78.80
2018-03-16T15:31:06.316Z,79.10
2018-03-16T15:33:34.544Z,79.80
2018-03-16T15:36:03.565Z,78.50
2018-03-16T15:38:31.806Z,78.50
2018-03-16T15:41:00.046Z,80.10
2018-03-16T15:43:28.314Z,80.00
2018-03-16T15:45:56.561Z,79.10
2018-03-16T15:48:24.858Z,80.40
2018-03-16T15:50:53.847Z,80.00
2018-03-16T15:53:22.138Z,79.60
2018-03-16T15:55:50.522Z,80.30
2018-03-16T15:58:18.813Z,81.40
2018-03-16T16:00:47.049Z,81.10
2018-03-16T16:03:15.290Z,81.50
2018-03-16T16:05:43.778Z,81.50
2018-03-16T16:08:12.791Z,80.80
2018-03-16T16:10:41.444Z,80.90
2018-03-16T16:13:12.017Z,81.60
2018-03-16T16:15:40.262Z,81.30
2018-03-16T16:18:08.706Z,81.80
2018-03-16T16:20:37.115Z,82.10
2018-03-16T16:23:07.299Z,82.40
2018-03-16T16:25:35.690Z,82.30
2018-03-16T16:28:03.962Z,82.40
2018-03-16T16:30:32.206Z,83.80
2018-03-16T16:33:00.446Z,83.00
2018-03-16T16:35:28.969Z,84.80
2018-03-16T16:37:57.217Z,85.10
2018-03-16T16:40:26.273Z,84.40
2018-03-16T16:42:54.548Z,84.40
2018-03-16T16:45:22.812Z,84.20
2018-03-16T16:47:51.046Z,84.80
2018-03-16T16:50:19.368Z,86.00
2018-03-16T16:52:48.781Z,86.90
2018-03-16T16:55:18.142Z,87.60
2018-03-16T16:57:46.845Z,85.80
2018-03-16T17:00:15.141Z,88.00
2018-03-16T17:02:43.730Z,89.50
2018-03-16T17:05:13.150Z,89.60
2018-03-16T17:07:41.505Z,88.20
2018-03-16T17:10:09.740Z,86.90
2018-03-16T17:12:38.322Z,86.10
2018-03-16T17:15:07.153Z,89.80
2018-03-16T17:17:35.425Z,90.40
2018-03-16T17:20:04.709Z,91.10
2018-03-16T17:22:33.018Z,91.10
2018-03-16T17:25:01.283Z,92.20
2018-03-16T17:27:29.811Z,92.00
2018-03-16T17:29:58.041Z,92.40
2018-03-16T17:32:26.284Z,93.10
2018-03-16T17:34:54.807Z,92.50
2018-03-16T17:37:23.039Z,90.80
2018-03-16T17:39:51.507Z,91.40
2018-03-16T17:42:20.126Z,91.70
2018-03-16T17:44:48.429Z,94.40
2018-03-16T17:47:16.669Z,93.40
2018-03-16T17:49:47.068Z,94.60
2018-03-16T17:52:17.257Z,93.30
2018-03-16T17:54:45.634Z,92.80
2018-03-16T17:57:13.901Z,94.00
2018-03-16T17:59:42.587Z,93.00
2018-03-16T18:02:10.808Z,92.10
2018-03-16T18:04:40.025Z,91.50
2018-03-16T18:07:08.269Z,91.50
2018-03-16T18:09:36.513Z,91.50
2018-03-16T18:12:04.773Z,90.80
2018-03-16T18:14:33.016Z,90.10
2018-03-16T18:17:02.022Z,90.90
2018-03-16T18:19:30.277Z,90.90
2018-03-16T18:21:58.717Z,90.00
2018-03-16T18:24:27.113Z,88.50
2018-03-16T18:26:55.562Z,89.90
2018-03-16T18:29:23.895Z,88.10
2018-03-16T18:31:53.057Z,87.60
2018-03-16T18:34:22.486Z,87.50
2018-03-16T18:36:52.209Z,87.20
2018-03-16T18:39:21.262Z,88.20
2018-03-16T18:41:49.510Z,88.10
2018-03-16T18:44:17.836Z,88.50
2018-03-16T18:46:46.114Z,91.20
2018-03-16T18:49:14.670Z,93.40
2018-03-16T18:51:42.976Z,91.90
2018-03-16T18:54:11.210Z,92.00
2018-03-16T18:56:39.482Z,92.00
2018-03-16T18:59:07.726Z,88.90
2018-03-16T19:01:36.778Z,87.60
2018-03-16T19:04:05.037Z,87.60
2018-03-16T19:06:33.279Z,86.70
2018-03-16T19:09:02.287Z,89.70
2018-03-16T19:11:30.683Z,89.60
2018-03-16T19:13:59.002Z,86.80
2018-03-16T19:16:27.257Z,86.20
2018-03-16T19:18:56.687Z,86.80
2018-03-16T19:21:24.926Z,87.70
2018-03-16T19:23:54.343Z,87.80
2018-03-16T19:26:22.604Z,87.80
2018-03-16T19:28:52.044Z,87.50
2018-03-16T19:31:20.285Z,87.20
2018-03-16T19:33:48.867Z,86.20
2018-03-16T19:36:17.112Z,88.30
2018-03-16T19:38:45.342Z,88.50
2018-03-16T19:41:13.593Z,89.60
2018-03-16T19:43:41.840Z,87.50
2018-03-16T19:46:10.146Z,85.30
2018-03-16T19:48:38.467Z,82.40
2018-03-16T19:51:06.657Z,81.80
2018-03-16T19:53:35.096Z,86.50
2018-03-16T19:56:03.458Z,85.70
2018-03-16T19:58:31.694Z,84.00
2018-03-16T20:01:00.699Z,81.10
2018-03-16T20:03:29.718Z,83.30
2018-03-16T20:05:57.957Z,83.30
2018-03-16T20:08:26.393Z,82.60
2018-03-16T20:10:54.654Z,82.50
2018-03-16T20:13:24.075Z,83.40
2018-03-16T20:15:52.314Z,83.60
2018-03-16T20:18:20.917Z,78.10
2018-03-16T20:20:49.150Z,79.00
2018-03-16T20:23:18.514Z,80.10
2018-03-16T20:25:46.770Z,81.40
2018-03-16T20:28:15.038Z,82.30
2018-03-16T20:30:43.345Z,81.20
2018-03-16T20:33:11.616Z,82.00
2018-03-16T20:35:39.842Z,82.20
2018-03-16T20:38:08.848Z,81.80
2018-03-16T20:40:38.001Z,79.90
2018-03-16T20:43:06.233Z,79.80
2018-03-16T20:45:34.502Z,80.20
2018-03-16T20:48:02.991Z,76.90
2018-03-16T20:50:31.977Z,73.60
2018-03-16T20:53:00.293Z,73.60
2018-03-16T20:55:28.578Z,75.00
2018-03-16T20:57:56.813Z,73.70
2018-03-16T21:00:25.093Z,72.20
2018-03-16T21:02:53.585Z,71.80
2018-03-16T21:05:22.805Z,73.50
2018-03-16T21:07:51.186Z,74.00
2018-03-16T21:10:19.610Z,76.00
2018-03-16T21:12:48.616Z,79.20
2018-03-16T21:15:17.141Z,79.10
2018-03-16T21:17:45.428Z,77.90
2018-03-16T21:20:15.853Z,75.00
2018-03-16T21:22:44.102Z,73.70
2018-03-16T21:25:12.563Z,76.20
2018-03-16T21:27:40.999Z,76.20
2018-03-16T21:30:09.260Z,75.40
2018-03-16T21:32:37.513Z,76.30
2018-03-16T21:35:05.826Z,77.40
2018-03-16T21:37:34.066Z,78.10
2018-03-16T21:40:02.673Z,78.30
2018-03-16T21:42:30.912Z,80.30
2018-03-16T21:44:59.149Z,75.70
2018-03-16T21:47:28.714Z,74.20
2018-03-16T21:49:56.975Z,74.30
2018-03-16T21:52:25.398Z,76.70
2018-03-16T21:54:53.805Z,76.70
2018-03-16T21:57:22.965Z,77.40
2018-03-16T21:59:51.203Z,77.30
2018-03-16T22:02:19.474Z,77.20
2018-03-16T22:04:47.717Z,77.00
2018-03-16T22:07:15.975Z,77.80
2018-03-16T22:09:44.450Z,77.50
2018-03-16T22:12:12.690Z,77.50
2018-03-16T22:14:40.953Z,77.20
2018-03-16T22:17:09.225Z,77.00
2018-03-16T22:19:38.522Z,76.30
2018-03-16T22:22:07.547Z,75.70
2018-03-16T22:24:35.798Z,75.70
2018-03-16T22:27:04.039Z,73.90
2018-03-16T22:29:32.281Z,72.80
2018-03-16T22:32:00.779Z,73.10
2018-03-16T22:34:29.032Z,74.40
2018-03-16T22:36:57.272Z,73.60
2018-03-16T22:39:25.551Z,73.50
2018-03-16T22:41:54.622Z,73.90
2018-03-16T22:44:22.853Z,73.80
2018-03-16T22:46:51.299Z,75.20
2018-03-16T22:49:20.332Z,75.20
2018-03-16T22:51:48.848Z,75.00
2018-03-16T22:54:17.446Z,74.80
2018-03-16T22:56:45.709Z,75.10
2018-03-16T22:59:13.966Z,76.40
2018-03-16T23:01:42.240Z,76.40
2018-03-16T23:04:10.612Z,74.90
2018-03-16T23:06:38.849Z,74.30
2018-03-16T23:09:07.126Z,74.70
2018-03-16T23:11:35.371Z,75.30
2018-03-16T23:14:04.565Z,75.10
2018-03-16T23:16:33.134Z,73.70
2018-03-16T23:19:01.402Z,73.90
2018-03-16T23:21:30.145Z,71.80
2018-03-16T23:23:59.310Z,73.00
2018-03-16T23:26:27.546Z,73.00
2018-03-16T23:28:55.799Z,74.60
2018-03-16T23:31:24.057Z,73.50
2018-03-16T23:33:52.298Z,74.20
2018-03-16T23:36:20.708Z,72.50
2018-03-16T23:38:49.484Z,73.30
2018-03-16T23:41:17.758Z,73.70
2018-03-16T23:43:46.003Z,71.40
2018-03-16T23:46:14.394Z,71.20
2018-03-16T23:48:42.621Z,71.70
2018-03-16T23:51:11.788Z,72.40
2018-03-16T23:53:40.044Z,72.30
2018-03-16T23:56:08.315Z,73.00
2018-03-16T23:58:36.729Z,72.90
